sensor_id;sensor_type;location;lat;lon;timestamp;pressure;altitude;pressure_sealevel;temperature;humidity
45541;BME280;31265;49.680;8.608;2023-04-22T00:02:19;99862.94;;;10.61;100.00
45541;BME280;31265;49.680;8.608;2023-04-22T00:04:49;99868.47;;;10.61;100.00
45541;BME280;31265;49.680;8.608;2023-04-22T00:07:22;99865.72;;;10.61;100.00
45541;BME280;31265;49.680;8.608;2023-04-22T00:09:53;99871.81;;;10.60;100.00
45541;BME280;31265;49.680;8.608;2023-04-22T00:12:21;99863.34;;;10.58;100.00
45541;BME280;31265;49.680;8.608;2023-04-22T00:14:49;99860.72;;;10.60;100.00
45541;BME280;31265;49.680;8.608;2023-04-22T00:17:20;99856.41;;;10.66;100.00
45541;BME280;31265;49.680;8.608;2023-04-22T00:19:48;99863.72;;;10.71;100.00
45541;BME280;31265;49.680;8.608;2023-04-22T00:22:16;99861.41;;;10.77;100.00
45541;BME280;31265;49.680;8.608;2023-04-22T00:24:45;99865.84;;;10.81;100.00
45541;BME280;31265;49.680;8.608;2023-04-22T00:27:15;99863.09;;;10.90;100.00
45541;BME280;31265;49.680;8.608;2023-04-22T00:29:43;99860.97;;;10.98;100.00
45541;BME280;31265;49.680;8.608;2023-04-22T00:32:13;99852.91;;;10.93;100.00
45541;BME280;31265;49.680;8.608;2023-04-22T00:34:41;99856.66;;;10.88;100.00
45541;BME280;31265;49.680;8.608;2023-04-22T00:37:10;99856.03;;;10.80;100.00
45541;BME280;31265;49.680;8.608;2023-04-22T00:39:38;99847.09;;;10.71;100.00
45541;BME280;31265;49.680;8.608;2023-04-22T00:42:08;99857.28;;;10.69;100.00
45541;BME280;31265;49.680;8.608;2023-04-22T00:44:39;99863.25;;;10.65;100.00
45541;BME280;31265;49.680;8.608;2023-04-22T00:47:08;99851.69;;;10.59;100.00
45541;BME280;31265;49.680;8.608;2023-04-22T00:49:36;99856.16;;;10.54;100.00
45541;BME280;31265;49.680;8.608;2023-04-22T00:52:06;99857.88;;;10.50;100.00
45541;BME280;31265;49.680;8.608;2023-04-22T00:54:37;99860.31;;;10.46;100.00
45541;BME280;31265;49.680;8.608;2023-04-22T00:57:06;99849.50;;;10.40;100.00
45541;BME280;31265;49.680;8.608;2023-04-22T00:59:35;99850.63;;;10.37;100.00
45541;BME280;31265;49.680;8.608;2023-04-22T01:02:05;99847.16;;;10.37;100.00
45541;BME280;31265;49.680;8.608;2023-04-22T01:04:35;99854.31;;;10.40;100.00
45541;BME280;31265;49.680;8.608;2023-04-22T01:07:03;99847.31;;;10.39;100.00
45541;BME280;31265;49.680;8.608;2023-04-22T01:09:33;99841.75;;;10.39;100.00
45541;BME280;31265;49.680;8.608;2023-04-22T01:12:02;99842.16;;;10.35;100.00
45541;BME280;31265;49.680;8.608;2023-04-22T01:14:30;99846.53;;;10.55;100.00
45541;BME280;31265;49.680;8.608;2023-04-22T01:16:59;99845.34;;;10.49;100.00
45541;BME280;31265;49.680;8.608;2023-04-22T01:19:31;99843.84;;;10.48;100.00
45541;BME280;31265;49.680;8.608;2023-04-22T01:22:00;99850.22;;;10.41;100.00
45541;BME280;31265;49.680;8.608;2023-04-22T01:24:33;99835.16;;;10.34;100.00
45541;BME280;31265;49.680;8.608;2023-04-22T01:27:01;99848.69;;;10.30;100.00
45541;BME280;31265;49.680;8.608;2023-04-22T01:29:30;99835.78;;;10.25;100.00
45541;BME280;31265;49.680;8.608;2023-04-22T01:32:00;99836.75;;;10.20;100.00
45541;BME280;31265;49.680;8.608;2023-04-22T01:34:30;99845.47;;;10.16;100.00
45541;BME280;31265;49.680;8.608;2023-04-22T01:37:00;99841.06;;;10.13;100.00
45541;BME280;31265;49.680;8.608;2023-04-22T01:39:30;99838.00;;;10.09;100.00
45541;BME280;31265;49.680;8.608;2023-04-22T01:41:59;99844.66;;;10.06;100.00
45541;BME280;31265;49.680;8.608;2023-04-22T01:44:29;99848.75;;;10.05;100.00
45541;BME280;31265;49.680;8.608;2023-04-22T01:46:58;99851.53;;;10.05;100.00
45541;BME280;31265;49.680;8.608;2023-04-22T01:49:27;99854.78;;;10.11;100.00
45541;BME280;31265;49.680;8.608;2023-04-22T01:51:55;99855.34;;;10.09;100.00
45541;BME280;31265;49.680;8.608;2023-04-22T01:54:24;99856.50;;;10.06;100.00
45541;BME280;31265;49.680;8.608;2023-04-22T01:56:54;99856.16;;;10.02;100.00
45541;BME280;31265;49.680;8.608;2023-04-22T01:59:24;99860.81;;;10.00;100.00
45541;BME280;31265;49.680;8.608;2023-04-22T02:01:53;99856.81;;;9.93;100.00
45541;BME280;31265;49.680;8.608;2023-04-22T02:04:21;99852.97;;;9.88;100.00
45541;BME280;31265;49.680;8.608;2023-04-22T02:06:50;99851.91;;;9.84;100.00
45541;BME280;31265;49.680;8.608;2023-04-22T02:09:18;99860.38;;;9.86;100.00
45541;BME280;31265;49.680;8.608;2023-04-22T02:11:46;99855.56;;;9.86;100.00
45541;BME280;31265;49.680;8.608;2023-04-22T02:14:16;99870.72;;;9.85;100.00
45541;BME280;31265;49.680;8.608;2023-04-22T02:16:46;99863.56;;;9.82;100.00
45541;BME280;31265;49.680;8.608;2023-04-22T02:19:15;99861.34;;;9.81;100.00
45541;BME280;31265;49.680;8.608;2023-04-22T02:21:44;99858.59;;;9.81;100.00
45541;BME280;31265;49.680;8.608;2023-04-22T02:24:12;99859.72;;;9.78;100.00
45541;BME280;31265;49.680;8.608;2023-04-22T02:26:40;99858.47;;;9.71;100.00
45541;BME280;31265;49.680;8.608;2023-04-22T02:29:09;99868.09;;;9.70;100.00
45541;BME280;31265;49.680;8.608;2023-04-22T02:31:39;99868.66;;;9.68;100.00
45541;BME280;31265;49.680;8.608;2023-04-22T02:34:07;99860.75;;;9.65;100.00
45541;BME280;31265;49.680;8.608;2023-04-22T02:36:36;99856.38;;;9.62;100.00
45541;BME280;31265;49.680;8.608;2023-04-22T02:39:05;99855.28;;;9.57;100.00
45541;BME280;31265;49.680;8.608;2023-04-22T02:41:34;99852.19;;;9.53;100.00
45541;BME280;31265;49.680;8.608;2023-04-22T02:44:04;99853.50;;;9.52;100.00
45541;BME280;31265;49.680;8.608;2023-04-22T02:46:32;99856.63;;;9.48;100.00
45541;BME280;31265;49.680;8.608;2023-04-22T02:49:02;99855.19;;;9.47;100.00
45541;BME280;31265;49.680;8.608;2023-04-22T02:51:31;99855.91;;;9.48;100.00
45541;BME280;31265;49.680;8.608;2023-04-22T02:54:01;99860.72;;;9.47;100.00
45541;BME280;31265;49.680;8.608;2023-04-22T02:56:29;99871.81;;;9.47;100.00
45541;BME280;31265;49.680;8.608;2023-04-22T02:58:58;99866.81;;;9.46;100.00
45541;BME280;31265;49.680;8.608;2023-04-22T03:01:27;99867.38;;;9.44;100.00
45541;BME280;31265;49.680;8.608;2023-04-22T03:04:02;99872.91;;;9.44;100.00
45541;BME280;31265;49.680;8.608;2023-04-22T03:06:31;99876.25;;;9.43;100.00
45541;BME280;31265;49.680;8.608;2023-04-22T03:09:00;99873.72;;;9.37;100.00
45541;BME280;31265;49.680;8.608;2023-04-22T03:11:29;99878.34;;;9.35;100.00
45541;BME280;31265;49.680;8.608;2023-04-22T03:13:57;99886.31;;;9.31;100.00
45541;BME280;31265;49.680;8.608;2023-04-22T03:16:28;99887.28;;;9.25;100.00
45541;BME280;31265;49.680;8.608;2023-04-22T03:19:03;99886.19;;;9.21;100.00
45541;BME280;31265;49.680;8.608;2023-04-22T03:21:31;99882.88;;;9.15;100.00
45541;BME280;31265;49.680;8.608;2023-04-22T03:24:02;99879.06;;;9.10;100.00
45541;BME280;31265;49.680;8.608;2023-04-22T03:26:33;99881.31;;;9.04;100.00
45541;BME280;31265;49.680;8.608;2023-04-22T03:29:03;99876.16;;;9.00;100.00
45541;BME280;31265;49.680;8.608;2023-04-22T03:31:31;99874.19;;;8.93;100.00
45541;BME280;31265;49.680;8.608;2023-04-22T03:34:00;99871.78;;;8.90;100.00
45541;BME280;31265;49.680;8.608;2023-04-22T03:36:31;99883.44;;;8.88;100.00
45541;BME280;31265;49.680;8.608;2023-04-22T03:39:02;99878.84;;;8.83;100.00
45541;BME280;31265;49.680;8.608;2023-04-22T03:41:34;99870.91;;;8.79;100.00
45541;BME280;31265;49.680;8.608;2023-04-22T03:44:04;99876.28;;;8.77;100.00
45541;BME280;31265;49.680;8.608;2023-04-22T03:46:37;99870.41;;;8.73;100.00
45541;BME280;31265;49.680;8.608;2023-04-22T03:49:22;99882.03;;;8.72;100.00
45541;BME280;31265;49.680;8.608;2023-04-22T03:51:52;99867.28;;;8.69;100.00
45541;BME280;31265;49.680;8.608;2023-04-22T03:54:23;99867.81;;;8.68;100.00
45541;BME280;31265;49.680;8.608;2023-04-22T03:56:52;99864.16;;;8.65;100.00
45541;BME280;31265;49.680;8.608;2023-04-22T03:59:23;99864.56;;;8.61;100.00
45541;BME280;31265;49.680;8.608;2023-04-22T04:01:52;99869.72;;;8.57;100.00
45541;BME280;31265;49.680;8.608;2023-04-22T04:04:25;99862.72;;;8.56;100.00
45541;BME280;31265;49.680;8.608;2023-04-22T04:07:01;99864.00;;;8.55;100.00
45541;BME280;31265;49.680;8.608;2023-04-22T04:09:29;99854.06;;;8.52;100.00
45541;BME280;31265;49.680;8.608;2023-04-22T04:11:57;99856.09;;;8.52;100.00
45541;BME280;31265;49.680;8.608;2023-04-22T04:14:30;99860.91;;;8.51;100.00
45541;BME280;31265;49.680;8.608;2023-04-22T04:16:58;99854.84;;;8.45;100.00
45541;BME280;31265;49.680;8.608;2023-04-22T04:19:31;99852.06;;;8.45;100.00
45541;BME280;31265;49.680;8.608;2023-04-22T04:22:03;99854.84;;;8.45;100.00
45541;BME280;31265;49.680;8.608;2023-04-22T04:24:37;99850.44;;;8.42;100.00
45541;BME280;31265;49.680;8.608;2023-04-22T04:27:14;99848.75;;;8.39;100.00
45541;BME280;31265;49.680;8.608;2023-04-22T04:29:49;99851.72;;;8.41;100.00
45541;BME280;31265;49.680;8.608;2023-04-22T04:32:39;99841.94;;;8.40;100.00
45541;BME280;31265;49.680;8.608;2023-04-22T04:35:11;99854.28;;;8.39;100.00
45541;BME280;31265;49.680;8.608;2023-04-22T04:37:45;99847.66;;;8.42;100.00
45541;BME280;31265;49.680;8.608;2023-04-22T04:40:14;99846.34;;;8.43;100.00
45541;BME280;31265;49.680;8.608;2023-04-22T04:42:52;99843.78;;;8.45;100.00
45541;BME280;31265;49.680;8.608;2023-04-22T04:45:26;99843.78;;;8.45;100.00
45541;BME280;31265;49.680;8.608;2023-04-22T04:47:57;99843.22;;;8.47;100.00
45541;BME280;31265;49.680;8.608;2023-04-22T04:50:33;99835.84;;;8.49;100.00
45541;BME280;31265;49.680;8.608;2023-04-22T04:53:04;99841.34;;;8.57;100.00
45541;BME280;31265;49.680;8.608;2023-04-22T04:55:37;99830.63;;;8.61;100.00
45541;BME280;31265;49.680;8.608;2023-04-22T04:58:17;99838.94;;;8.61;100.00
45541;BME280;31265;49.680;8.608;2023-04-22T05:00:49;99846.84;;;8.65;100.00
45541;BME280;31265;49.680;8.608;2023-04-22T05:03:18;99837.97;;;8.66;100.00
45541;BME280;31265;49.680;8.608;2023-04-22T05:05:47;99843.13;;;8.70;100.00
45541;BME280;31265;49.680;8.608;2023-04-22T05:08:18;99844.75;;;8.73;100.00
45541;BME280;31265;49.680;8.608;2023-04-22T05:10:47;99851.94;;;8.76;100.00
45541;BME280;31265;49.680;8.608;2023-04-22T05:13:18;99845.66;;;8.83;100.00
45541;BME280;31265;49.680;8.608;2023-04-22T05:15:48;99844.69;;;8.88;100.00
45541;BME280;31265;49.680;8.608;2023-04-22T05:18:17;99850.56;;;8.92;100.00
45541;BME280;31265;49.680;8.608;2023-04-22T05:20:46;99856.03;;;9.00;100.00
45541;BME280;31265;49.680;8.608;2023-04-22T05:23:20;99858.22;;;9.09;100.00
45541;BME280;31265;49.680;8.608;2023-04-22T05:25:52;99868.28;;;9.22;100.00
45541;BME280;31265;49.680;8.608;2023-04-22T05:28:22;99863.75;;;9.34;100.00
45541;BME280;31265;49.680;8.608;2023-04-22T05:30:56;99865.19;;;9.43;100.00
45541;BME280;31265;49.680;8.608;2023-04-22T05:33:28;99871.91;;;9.57;100.00
45541;BME280;31265;49.680;8.608;2023-04-22T05:35:57;99874.03;;;9.66;100.00
45541;BME280;31265;49.680;8.608;2023-04-22T05:38:28;99889.78;;;9.81;100.00
45541;BME280;31265;49.680;8.608;2023-04-22T05:40:57;99885.09;;;9.92;100.00
45541;BME280;31265;49.680;8.608;2023-04-22T05:43:28;99883.00;;;10.00;100.00
45541;BME280;31265;49.680;8.608;2023-04-22T05:46:07;99885.16;;;10.01;100.00
45541;BME280;31265;49.680;8.608;2023-04-22T05:48:38;99881.28;;;10.04;100.00
45541;BME280;31265;49.680;8.608;2023-04-22T05:51:20;99884.63;;;10.03;100.00
45541;BME280;31265;49.680;8.608;2023-04-22T05:53:51;99881.94;;;10.12;100.00
45541;BME280;31265;49.680;8.608;2023-04-22T05:56:20;99893.56;;;10.11;100.00
45541;BME280;31265;49.680;8.608;2023-04-22T05:58:48;99893.66;;;10.21;100.00
45541;BME280;31265;49.680;8.608;2023-04-22T06:01:20;99886.78;;;10.29;100.00
45541;BME280;31265;49.680;8.608;2023-04-22T06:04:00;99894.84;;;10.35;100.00
45541;BME280;31265;49.680;8.608;2023-04-22T06:06:32;99897.88;;;10.47;100.00
45541;BME280;31265;49.680;8.608;2023-04-22T06:09:04;99895.16;;;10.57;100.00
45541;BME280;31265;49.680;8.608;2023-04-22T06:11:35;99909.84;;;10.67;100.00
45541;BME280;31265;49.680;8.608;2023-04-22T06:14:04;99912.13;;;10.78;100.00
45541;BME280;31265;49.680;8.608;2023-04-22T06:16:33;99913.31;;;10.85;100.00
45541;BME280;31265;49.680;8.608;2023-04-22T06:19:04;99914.88;;;10.95;100.00
45541;BME280;31265;49.680;8.608;2023-04-22T06:21:36;99925.38;;;10.97;100.00
45541;BME280;31265;49.680;8.608;2023-04-22T06:24:08;99930.63;;;10.93;100.00
45541;BME280;31265;49.680;8.608;2023-04-22T06:26:37;99926.53;;;10.94;100.00
45541;BME280;31265;49.680;8.608;2023-04-22T06:29:05;99913.66;;;10.89;100.00
45541;BME280;31265;49.680;8.608;2023-04-22T06:31:39;99924.56;;;11.04;100.00
45541;BME280;31265;49.680;8.608;2023-04-22T06:34:08;99920.25;;;11.21;100.00
45541;BME280;31265;49.680;8.608;2023-04-22T06:36:37;99915.16;;;11.27;100.00
45541;BME280;31265;49.680;8.608;2023-04-22T06:39:08;99907.53;;;11.54;100.00
45541;BME280;31265;49.680;8.608;2023-04-22T06:41:44;99900.00;;;11.84;100.00
45541;BME280;31265;49.680;8.608;2023-04-22T06:44:33;99907.28;;;12.26;100.00
45541;BME280;31265;49.680;8.608;2023-04-22T06:47:20;99909.19;;;12.53;100.00
45541;BME280;31265;49.680;8.608;2023-04-22T06:50:03;99904.50;;;12.65;100.00
45541;BME280;31265;49.680;8.608;2023-04-22T06:52:37;99898.19;;;12.84;100.00
45541;BME280;31265;49.680;8.608;2023-04-22T06:55:09;99897.41;;;13.03;100.00
45541;BME280;31265;49.680;8.608;2023-04-22T06:57:37;99897.13;;;13.49;100.00
45541;BME280;31265;49.680;8.608;2023-04-22T07:00:07;99892.75;;;13.77;100.00
45541;BME280;31265;49.680;8.608;2023-04-22T07:02:38;99899.25;;;13.70;100.00
45541;BME280;31265;49.680;8.608;2023-04-22T07:05:07;99899.19;;;13.80;100.00
45541;BME280;31265;49.680;8.608;2023-04-22T07:07:35;99890.63;;;13.88;100.00
45541;BME280;31265;49.680;8.608;2023-04-22T07:10:05;99889.69;;;13.73;100.00
45541;BME280;31265;49.680;8.608;2023-04-22T07:12:43;99883.13;;;13.90;100.00
45541;BME280;31265;49.680;8.608;2023-04-22T07:15:11;99885.97;;;14.24;100.00
45541;BME280;31265;49.680;8.608;2023-04-22T07:17:40;99884.13;;;14.71;100.00
45541;BME280;31265;49.680;8.608;2023-04-22T07:20:10;99881.66;;;15.11;100.00
45541;BME280;31265;49.680;8.608;2023-04-22T07:22:39;99886.03;;;15.25;100.00
45541;BME280;31265;49.680;8.608;2023-04-22T07:25:07;99888.72;;;15.35;100.00
45541;BME280;31265;49.680;8.608;2023-04-22T07:27:36;99891.16;;;15.53;100.00
45541;BME280;31265;49.680;8.608;2023-04-22T07:30:08;99886.69;;;15.71;100.00
45541;BME280;31265;49.680;8.608;2023-04-22T07:32:37;99884.22;;;15.65;100.00
45541;BME280;31265;49.680;8.608;2023-04-22T07:35:07;99886.34;;;16.14;100.00
45541;BME280;31265;49.680;8.608;2023-04-22T07:37:35;99878.22;;;16.44;100.00
45541;BME280;31265;49.680;8.608;2023-04-22T07:40:04;99879.06;;;16.72;100.00
45541;BME280;31265;49.680;8.608;2023-04-22T07:42:37;99879.25;;;16.88;100.00
45541;BME280;31265;49.680;8.608;2023-04-22T07:45:11;99877.44;;;17.20;100.00
45541;BME280;31265;49.680;8.608;2023-04-22T07:47:39;99873.38;;;17.09;100.00
45541;BME280;31265;49.680;8.608;2023-04-22T07:50:08;99877.59;;;17.63;100.00
45541;BME280;31265;49.680;8.608;2023-04-22T07:52:37;99870.50;;;17.35;100.00
45541;BME280;31265;49.680;8.608;2023-04-22T07:55:07;99872.81;;;17.94;100.00
45541;BME280;31265;49.680;8.608;2023-04-22T07:57:35;99868.50;;;18.07;100.00
45541;BME280;31265;49.680;8.608;2023-04-22T08:00:06;99867.94;;;18.54;100.00
45541;BME280;31265;49.680;8.608;2023-04-22T08:02:39;99868.84;;;17.99;100.00
45541;BME280;31265;49.680;8.608;2023-04-22T08:05:10;99864.16;;;17.90;100.00
45541;BME280;31265;49.680;8.608;2023-04-22T08:07:39;99866.63;;;18.11;100.00
45541;BME280;31265;49.680;8.608;2023-04-22T08:10:08;99869.66;;;18.45;100.00
45541;BME280;31265;49.680;8.608;2023-04-22T08:12:37;99865.47;;;18.76;100.00
45541;BME280;31265;49.680;8.608;2023-04-22T08:15:06;99869.66;;;19.38;100.00
45541;BME280;31265;49.680;8.608;2023-04-22T08:17:35;99865.34;;;19.85;100.00
45541;BME280;31265;49.680;8.608;2023-04-22T08:20:06;99857.50;;;19.99;99.49
45541;BME280;31265;49.680;8.608;2023-04-22T08:22:35;99870.28;;;19.52;100.00
45541;BME280;31265;49.680;8.608;2023-04-22T08:25:06;99863.16;;;20.17;97.05
45541;BME280;31265;49.680;8.608;2023-04-22T08:27:36;99869.97;;;20.12;99.48
45541;BME280;31265;49.680;8.608;2023-04-22T08:30:08;99869.19;;;20.45;91.17
45541;BME280;31265;49.680;8.608;2023-04-22T08:32:36;99864.28;;;19.76;92.75
45541;BME280;31265;49.680;8.608;2023-04-22T08:35:09;99861.78;;;19.19;96.97
45541;BME280;31265;49.680;8.608;2023-04-22T08:37:37;99875.00;;;19.48;97.72
45541;BME280;31265;49.680;8.608;2023-04-22T08:40:08;99861.38;;;19.74;99.97
45541;BME280;31265;49.680;8.608;2023-04-22T08:42:36;99863.84;;;20.00;100.00
45541;BME280;31265;49.680;8.608;2023-04-22T08:45:05;99862.28;;;20.48;99.87
45541;BME280;31265;49.680;8.608;2023-04-22T08:47:36;99865.72;;;20.65;87.85
45541;BME280;31265;49.680;8.608;2023-04-22T08:50:06;99872.75;;;20.46;96.31
45541;BME280;31265;49.680;8.608;2023-04-22T08:52:38;99866.66;;;19.66;100.00
45541;BME280;31265;49.680;8.608;2023-04-22T08:55:07;99856.16;;;20.36;100.00
45541;BME280;31265;49.680;8.608;2023-04-22T08:57:36;99859.69;;;20.18;100.00
45541;BME280;31265;49.680;8.608;2023-04-22T09:00:06;99856.16;;;20.18;100.00
45541;BME280;31265;49.680;8.608;2023-04-22T09:02:36;99847.97;;;19.57;100.00
45541;BME280;31265;49.680;8.608;2023-04-22T09:05:07;99848.81;;;20.11;100.00
45541;BME280;31265;49.680;8.608;2023-04-22T09:07:40;99848.97;;;19.97;100.00
45541;BME280;31265;49.680;8.608;2023-04-22T09:10:09;99850.53;;;20.36;100.00
45541;BME280;31265;49.680;8.608;2023-04-22T09:12:39;99850.88;;;21.00;97.38
45541;BME280;31265;49.680;8.608;2023-04-22T09:15:11;99842.19;;;21.14;94.25
45541;BME280;31265;49.680;8.608;2023-04-22T09:17:40;99841.81;;;21.03;91.17
45541;BME280;31265;49.680;8.608;2023-04-22T09:20:10;99847.34;;;22.01;89.15
45541;BME280;31265;49.680;8.608;2023-04-22T09:22:42;99839.69;;;21.62;87.00
45541;BME280;31265;49.680;8.608;2023-04-22T09:25:15;99840.06;;;22.38;89.46
45541;BME280;31265;49.680;8.608;2023-04-22T09:27:47;99843.06;;;22.00;84.77
45541;BME280;31265;49.680;8.608;2023-04-22T09:30:23;99838.25;;;21.83;93.10
45541;BME280;31265;49.680;8.608;2023-04-22T09:32:53;99832.13;;;21.29;92.48
45541;BME280;31265;49.680;8.608;2023-04-22T09:35:26;99832.88;;;21.91;81.05
45541;BME280;31265;49.680;8.608;2023-04-22T09:38:00;99837.91;;;21.73;82.33
45541;BME280;31265;49.680;8.608;2023-04-22T09:40:30;99835.84;;;22.17;77.83
45541;BME280;31265;49.680;8.608;2023-04-22T09:43:00;99837.66;;;21.44;83.49
45541;BME280;31265;49.680;8.608;2023-04-22T09:45:32;99833.59;;;21.30;86.48
45541;BME280;31265;49.680;8.608;2023-04-22T09:48:05;99839.38;;;21.14;85.87
45541;BME280;31265;49.680;8.608;2023-04-22T09:50:36;99829.66;;;21.19;86.46
45541;BME280;31265;49.680;8.608;2023-04-22T09:53:07;99830.00;;;22.11;83.27
45541;BME280;31265;49.680;8.608;2023-04-22T09:55:38;99834.38;;;22.60;77.62
45541;BME280;31265;49.680;8.608;2023-04-22T09:58:09;99830.97;;;22.42;79.84
45541;BME280;31265;49.680;8.608;2023-04-22T10:00:42;99833.13;;;23.42;73.40
45541;BME280;31265;49.680;8.608;2023-04-22T10:03:12;99819.97;;;23.52;70.27
45541;BME280;31265;49.680;8.608;2023-04-22T10:05:41;99816.41;;;23.78;70.77
45541;BME280;31265;49.680;8.608;2023-04-22T10:08:14;99819.72;;;23.16;69.00
45541;BME280;31265;49.680;8.608;2023-04-22T10:10:43;99818.44;;;23.47;65.54
45541;BME280;31265;49.680;8.608;2023-04-22T10:13:12;99811.94;;;23.71;60.82
45541;BME280;31265;49.680;8.608;2023-04-22T10:15:43;99808.91;;;23.63;63.37
45541;BME280;31265;49.680;8.608;2023-04-22T10:18:16;99814.06;;;23.16;62.13
45541;BME280;31265;49.680;8.608;2023-04-22T10:20:46;99809.91;;;24.01;63.30
45541;BME280;31265;49.680;8.608;2023-04-22T10:23:18;99801.91;;;24.88;56.66
45541;BME280;31265;49.680;8.608;2023-04-22T10:25:52;99807.06;;;24.32;59.71
45541;BME280;31265;49.680;8.608;2023-04-22T10:28:22;99805.16;;;24.42;62.59
45541;BME280;31265;49.680;8.608;2023-04-22T10:30:52;99795.34;;;24.15;63.48
45541;BME280;31265;49.680;8.608;2023-04-22T10:33:39;99806.41;;;24.35;59.67
45541;BME280;31265;49.680;8.608;2023-04-22T10:36:15;99812.13;;;24.37;57.50
45541;BME280;31265;49.680;8.608;2023-04-22T10:39:16;99809.75;;;24.90;56.17
45541;BME280;31265;49.680;8.608;2023-04-22T10:44:47;99797.78;;;24.29;58.36
45541;BME280;31265;49.680;8.608;2023-04-22T10:47:27;99798.44;;;24.92;57.14
45541;BME280;31265;49.680;8.608;2023-04-22T10:50:14;99803.56;;;24.65;53.22
45541;BME280;31265;49.680;8.608;2023-04-22T10:52:46;99797.94;;;25.04;54.39
45541;BME280;31265;49.680;8.608;2023-04-22T10:55:20;99792.22;;;25.02;55.33
45541;BME280;31265;49.680;8.608;2023-04-22T10:57:50;99792.13;;;25.32;52.34
45541;BME280;31265;49.680;8.608;2023-04-22T11:05:27;99780.84;;;25.00;50.78
45541;BME280;31265;49.680;8.608;2023-04-22T11:08:01;99786.97;;;26.05;50.62
45541;BME280;31265;49.680;8.608;2023-04-22T11:10:33;99781.59;;;25.79;48.99
45541;BME280;31265;49.680;8.608;2023-04-22T11:13:04;99778.13;;;25.44;51.61
45541;BME280;31265;49.680;8.608;2023-04-22T11:15:35;99776.84;;;25.13;50.26
45541;BME280;31265;49.680;8.608;2023-04-22T11:18:08;99781.13;;;25.52;50.57
45541;BME280;31265;49.680;8.608;2023-04-22T11:20:40;99774.25;;;25.25;50.26
45541;BME280;31265;49.680;8.608;2023-04-22T11:23:09;99777.38;;;25.42;50.36
45541;BME280;31265;49.680;8.608;2023-04-22T11:25:38;99767.06;;;26.05;51.17
45541;BME280;31265;49.680;8.608;2023-04-22T11:28:09;99765.25;;;25.37;51.57
45541;BME280;31265;49.680;8.608;2023-04-22T11:30:38;99777.31;;;26.25;50.02
45541;BME280;31265;49.680;8.608;2023-04-22T11:33:06;99768.00;;;25.75;50.41
45541;BME280;31265;49.680;8.608;2023-04-22T11:35:35;99762.34;;;26.22;52.38
45541;BME280;31265;49.680;8.608;2023-04-22T11:38:08;99767.44;;;26.30;49.34
45541;BME280;31265;49.680;8.608;2023-04-22T11:40:39;99775.72;;;25.69;51.14
45541;BME280;31265;49.680;8.608;2023-04-22T11:43:12;99766.25;;;25.99;50.40
45541;BME280;31265;49.680;8.608;2023-04-22T11:45:40;99769.38;;;26.68;48.55
45541;BME280;31265;49.680;8.608;2023-04-22T11:48:10;99768.72;;;26.71;43.15
45541;BME280;31265;49.680;8.608;2023-04-22T11:50:41;99768.81;;;26.81;41.11
45541;BME280;31265;49.680;8.608;2023-04-22T11:53:16;99755.78;;;25.65;42.06
45541;BME280;31265;49.680;8.608;2023-04-22T11:55:46;99763.31;;;25.48;43.76
45541;BME280;31265;49.680;8.608;2023-04-22T11:58:18;99759.41;;;25.71;43.08
45541;BME280;31265;49.680;8.608;2023-04-22T12:00:49;99760.75;;;26.11;41.90
45541;BME280;31265;49.680;8.608;2023-04-22T12:03:19;99759.13;;;26.48;42.09
45541;BME280;31265;49.680;8.608;2023-04-22T12:05:51;99758.56;;;26.05;40.14
45541;BME280;31265;49.680;8.608;2023-04-22T12:08:23;99754.38;;;25.66;41.71
45541;BME280;31265;49.680;8.608;2023-04-22T12:10:53;99743.47;;;26.45;42.95
45541;BME280;31265;49.680;8.608;2023-04-22T12:13:24;99747.88;;;26.04;41.64
45541;BME280;31265;49.680;8.608;2023-04-22T12:15:54;99748.75;;;25.27;42.36
45541;BME280;31265;49.680;8.608;2023-04-22T12:18:28;99755.13;;;24.55;43.55
45541;BME280;31265;49.680;8.608;2023-04-22T12:21:01;99750.75;;;24.48;43.27
45541;BME280;31265;49.680;8.608;2023-04-22T12:23:41;99742.72;;;25.09;45.38
45541;BME280;31265;49.680;8.608;2023-04-22T12:26:11;99740.47;;;25.42;43.92
45541;BME280;31265;49.680;8.608;2023-04-22T12:28:42;99747.97;;;24.86;43.52
45541;BME280;31265;49.680;8.608;2023-04-22T12:31:12;99736.47;;;24.78;44.97
45541;BME280;31265;49.680;8.608;2023-04-22T12:33:41;99748.97;;;24.33;45.47
45541;BME280;31265;49.680;8.608;2023-04-22T12:36:10;99744.53;;;24.23;45.99
45541;BME280;31265;49.680;8.608;2023-04-22T12:38:40;99737.84;;;24.11;45.36
45541;BME280;31265;49.680;8.608;2023-04-22T12:41:09;99744.38;;;24.17;46.33
45541;BME280;31265;49.680;8.608;2023-04-22T12:43:37;99743.03;;;23.32;47.79
45541;BME280;31265;49.680;8.608;2023-04-22T12:46:07;99748.31;;;23.17;47.06
45541;BME280;31265;49.680;8.608;2023-04-22T12:48:38;99745.63;;;22.71;49.18
45541;BME280;31265;49.680;8.608;2023-04-22T12:51:07;99743.41;;;22.44;49.31
45541;BME280;31265;49.680;8.608;2023-04-22T12:53:36;99748.44;;;22.45;50.88
45541;BME280;31265;49.680;8.608;2023-04-22T12:56:06;99750.28;;;22.15;50.11
45541;BME280;31265;49.680;8.608;2023-04-22T12:58:35;99752.66;;;22.00;51.60
45541;BME280;31265;49.680;8.608;2023-04-22T13:01:04;99754.31;;;21.85;52.19
45541;BME280;31265;49.680;8.608;2023-04-22T13:03:32;99750.47;;;21.75;53.93
45541;BME280;31265;49.680;8.608;2023-04-22T13:06:00;99756.31;;;21.59;55.06
45541;BME280;31265;49.680;8.608;2023-04-22T13:08:29;99767.69;;;21.41;52.41
45541;BME280;31265;49.680;8.608;2023-04-22T13:11:00;99765.66;;;21.43;51.93
45541;BME280;31265;49.680;8.608;2023-04-22T13:13:30;99757.56;;;21.14;52.89
45541;BME280;31265;49.680;8.608;2023-04-22T13:15:58;99755.47;;;20.94;52.15
45541;BME280;31265;49.680;8.608;2023-04-22T13:18:26;99754.63;;;20.90;51.36
45541;BME280;31265;49.680;8.608;2023-04-22T13:20:55;99747.53;;;20.69;52.10
45541;BME280;31265;49.680;8.608;2023-04-22T13:23:25;99745.50;;;20.71;52.80